Time;durP1;ratioP1;P1;durP2;ratioP2;P2;SDS_P1;SDS_P2;PMS_P1;PMS_P2;Temp;Humidity;BMP_temperature;BMP_pressure;BME280_temperature;BME280_humidity;BME280_pressure;Samples;Min_cycle;Max_cycle;Signal;HPM_P1;HPM_P2
2022/09/09 00:06:59;;;;;;;1.60;1.50;;;;;;;25.17;52.52;99994.47;20665441;28;20081;-77
2022/09/09 00:17:09;;;;;;;1.50;1.40;;;;;;;25.14;52.12;99976.25;20662560;28;20042;-77
2022/09/09 00:27:37;;;;;;;1.57;1.40;;;;;;;25.11;52.38;99995.94;20669179;28;20117;-77
2022/09/09 00:37:38;;;;;;;1.52;1.35;;;;;;;25.14;52.38;99994.78;20667013;28;20038;-77
2022/09/09 00:47:43;;;;;;;;;;;;;;;25.12;52.13;99991.47;20671976;28;20042;-76
2022/09/09 00:57:46;;;;;;;1.83;1.52;;;;;;;25.14;51.99;99992.16;20672515;28;19933;-77
2022/09/09 01:07:49;;;;;;;1.70;1.60;;;;;;;25.12;51.78;100008.19;20657151;28;20108;-76
2022/09/09 01:17:53;;;;;;;1.70;1.33;;;;;;;25.12;52.10;100015.31;20673869;28;20042;-77
2022/09/09 01:28:01;;;;;;;1.65;1.20;;;;;;;25.10;51.91;100031.34;20685071;28;20058;-77
2022/09/09 01:38:02;;;;;;;1.30;1.20;;;;;;;25.08;51.84;100026.22;20685630;28;20084;-76
2022/09/09 01:48:02;;;;;;;1.30;1.20;;;;;;;25.10;51.69;100028.72;20666101;28;20444;-77
2022/09/09 01:58:16;;;;;;;1.13;1.10;;;;;;;25.09;51.89;100043.75;20661716;28;20065;-77
2022/09/09 02:08:33;;;;;;;1.05;0.95;;;;;;;25.06;52.06;100033.47;20665757;28;20046;-76
2022/09/09 02:18:45;;;;;;;1.85;1.20;;;;;;;25.07;51.77;100045.75;20666107;28;20188;-76
2022/09/09 02:28:49;;;;;;;1.20;1.10;;;;;;;25.08;51.77;100051.88;20682761;28;20046;-78
2022/09/09 02:38:52;;;;;;;1.40;1.08;;;;;;;25.07;51.97;100048.41;20657203;28;20044;-78
2022/09/09 02:49:22;;;;;;;1.20;1.10;;;;;;;25.03;51.92;100041.72;20665596;28;20046;-78
2022/09/09 02:59:25;;;;;;;1.20;1.10;;;;;;;25.05;51.74;100042.41;20673351;28;20042;-77
2022/09/09 03:09:26;;;;;;;0.93;0.90;;;;;;;25.04;52.15;100039.91;20679549;28;20050;-77
2022/09/09 03:19:27;;;;;;;1.20;1.10;;;;;;;25.03;51.99;100046.19;20670434;28;20041;-77
2022/09/09 03:29:28;;;;;;;1.10;1.00;;;;;;;25.02;51.94;100052.47;20680859;28;20069;-78
2022/09/09 03:39:28;;;;;;;1.20;1.10;;;;;;;25.02;51.59;100048.00;20668938;28;20054;-78
2022/09/09 03:49:29;;;;;;;0.90;0.90;;;;;;;25.00;51.89;100042.03;20672089;28;20030;-78
2022/09/09 03:59:29;;;;;;;0.80;0.80;;;;;;;25.00;51.71;100065.03;20668091;28;20133;-78
2022/09/09 04:09:30;;;;;;;0.80;0.80;;;;;;;24.98;51.84;100061.72;20679919;28;20042;-79
2022/09/09 04:19:31;;;;;;;0.80;0.80;;;;;;;24.96;51.79;100055.72;20668836;28;20535;-77
2022/09/09 04:29:31;;;;;;;0.90;0.90;;;;;;;24.92;50.43;100069.25;20675760;28;20096;-75
2022/09/09 04:39:32;;;;;;;2.05;1.00;;;;;;;24.62;49.79;100065.16;20673960;28;20042;-73
2022/09/09 04:49:32;;;;;;;1.63;1.30;;;;;;;24.39;48.98;100059.41;20672440;28;20081;-74
2022/09/09 04:59:33;;;;;;;1.30;1.20;;;;;;;24.19;50.01;100070.09;20667003;28;20050;-74
2022/09/09 05:09:34;;;;;;;1.58;1.45;;;;;;;24.07;49.74;100064.19;20687857;28;20612;-75
2022/09/09 05:19:34;;;;;;;4.13;2.00;;;;;;;23.74;50.88;100073.44;20680109;28;20050;-73
2022/09/09 05:29:34;;;;;;;3.85;1.70;;;;;;;23.70;50.96;100078.19;20691023;28;20111;-74
2022/09/09 05:39:36;;;;;;;1.50;1.40;;;;;;;23.54;51.26;100085.88;20689558;28;20049;-74
2022/09/09 05:49:37;;;;;;;3.25;1.48;;;;;;;23.48;51.51;100087.28;20697858;28;20041;-74
2022/09/09 05:59:38;;;;;;;3.60;1.30;;;;;;;23.39;51.69;100088.97;20714225;28;20038;-74
2022/09/09 06:09:38;;;;;;;4.40;1.50;;;;;;;23.40;51.87;100097.72;20685077;28;20087;-73
2022/09/09 06:19:38;;;;;;;2.50;1.70;;;;;;;23.38;52.31;100102.31;20679698;28;20041;-76
2022/09/09 06:29:40;;;;;;;1.50;1.23;;;;;;;23.27;51.72;100098.00;20700529;28;20054;-75
2022/09/09 06:39:40;;;;;;;10.07;1.70;;;;;;;23.28;52.03;100097.88;20717780;28;20052;-75
2022/09/09 06:49:43;;;;;;;4.03;2.38;;;;;;;23.40;51.74;100100.34;20699712;28;20048;-74
2022/09/09 06:59:43;;;;;;;6.82;1.80;;;;;;;23.35;51.75;100098.13;20710495;28;20072;-75
2022/09/09 07:09:45;;;;;;;2.72;1.50;;;;;;;23.47;51.41;100110.22;20713410;28;20390;-74
2022/09/09 07:19:45;;;;;;;3.78;1.20;;;;;;;23.34;51.49;100115.78;20707328;28;20042;-74
2022/09/09 07:29:46;;;;;;;2.72;1.27;;;;;;;23.35;51.11;100127.19;20717838;28;20619;-73
2022/09/09 07:39:46;;;;;;;2.55;1.40;;;;;;;23.49;50.88;100124.13;20729754;28;20045;-73
2022/09/09 07:49:49;;;;;;;3.38;1.50;;;;;;;23.69;51.04;100128.56;20708913;28;20136;-75
2022/09/09 07:59:50;;;;;;;3.53;1.58;;;;;;;23.83;50.93;100131.59;20715543;28;20042;-77
2022/09/09 08:09:50;;;;;;;3.60;1.30;;;;;;;23.96;51.02;100133.13;20727885;28;20519;-79
2022/09/09 08:19:53;;;;;;;1.20;1.05;;;;;;;24.05;51.15;100129.63;20722928;28;20042;-78
2022/09/09 08:29:55;;;;;;;5.55;1.00;;;;;;;24.14;51.21;100130.56;20717268;28;20225;-78
2022/09/09 08:39:56;;;;;;;1.58;0.85;;;;;;;24.22;51.17;100111.34;20733739;28;20451;-80
2022/09/09 08:50:15;;;;;;;1.23;0.90;;;;;;;24.32;50.85;100132.47;20729536;28;20030;-80
2022/09/09 09:00:15;;;;;;;1.45;1.00;;;;;;;24.42;50.93;100127.94;20751391;28;20045;-77
2022/09/09 09:10:40;;;;;;;1.42;1.00;;;;;;;24.43;50.73;100134.91;20721790;28;20106;-81
2022/09/09 09:20:50;;;;;;;2.00;1.00;;;;;;;24.52;50.81;100123.41;20712738;28;20042;-78
2022/09/09 09:31:07;;;;;;;0.75;0.75;;;;;;;24.55;50.88;100112.56;20718888;28;20046;-78
2022/09/09 09:41:08;;;;;;;1.25;1.00;;;;;;;24.65;50.34;100095.78;20727285;28;20053;-79
2022/09/09 09:51:15;;;;;;;0.80;0.80;;;;;;;24.70;50.63;100099.66;20743743;28;20496;-80
2022/09/09 10:01:35;;;;;;;0.82;0.75;;;;;;;24.76;50.11;100109.66;20728318;28;20096;-78
2022/09/09 10:11:52;;;;;;;0.90;0.90;;;;;;;24.86;49.54;100098.19;20707466;28;20046;-79
2022/09/09 10:22:31;;;;;;;0.80;0.80;;;;;;;24.90;48.86;100087.16;20716543;28;20049;-77
2022/09/09 10:33:01;;;;;;;2.55;0.90;;;;;;;25.03;48.79;100091.22;20671429;28;20424;-77
2022/09/09 10:43:29;;;;;;;3.17;1.20;;;;;;;25.12;48.68;100086.84;20709618;28;20046;-78
2022/09/09 10:53:39;;;;;;;1.90;1.02;;;;;;;25.25;50.13;100090.78;20724194;28;20041;-79
2022/09/09 11:03:42;;;;;;;6.57;1.33;;;;;;;25.33;49.37;100078.53;20710129;28;20505;-78
2022/09/09 11:13:54;;;;;;;2.83;1.30;;;;;;;25.34;49.51;100081.06;20706257;28;20052;-80
2022/09/09 11:24:00;;;;;;;0.82;0.82;;;;;;;25.39;48.62;100076.16;20734641;28;20077;-79
2022/09/09 11:34:35;;;;;;;3.13;1.15;;;;;;;25.47;49.35;100070.06;20716860;28;20416;-79
2022/09/09 11:44:35;;;;;;;2.92;1.15;;;;;;;25.54;49.87;100060.50;20709837;28;20045;-77
2022/09/09 11:54:47;;;;;;;2.40;1.10;;;;;;;25.56;49.21;100047.09;20713156;28;20054;-78
2022/09/09 12:05:00;;;;;;;2.28;0.77;;;;;;;25.60;49.18;100045.81;20715997;28;20382;-76
2022/09/09 12:15:06;;;;;;;1.48;1.20;;;;;;;25.69;48.90;100050.16;20708301;28;20512;-77
2022/09/09 12:25:16;;;;;;;4.00;1.13;;;;;;;25.72;49.03;100047.22;20700195;28;20634;-77
2022/09/09 12:35:22;;;;;;;4.15;1.23;;;;;;;25.75;49.27;100035.44;20704037;28;20136;-77
2022/09/09 12:45:25;;;;;;;3.53;1.25;;;;;;;25.77;49.14;100022.88;20699691;28;20188;-77
2022/09/09 12:55:33;;;;;;;2.58;1.10;;;;;;;25.85;48.89;100017.63;20692658;28;20042;-76
2022/09/09 13:05:38;;;;;;;4.80;1.35;;;;;;;25.95;49.45;99998.06;20679033;28;20053;-76
2022/09/09 13:15:39;;;;;;;2.58;1.10;;;;;;;26.04;49.47;99984.69;20699862;28;20050;-76
2022/09/09 13:25:40;;;;;;;5.00;1.27;;;;;;;26.10;49.46;99977.94;20692106;28;20045;-75
2022/09/09 13:35:55;;;;;;;;;;;;;;;25.94;49.75;99968.06;20690778;28;20595;-77
2022/09/09 13:45:58;;;;;;;1.58;1.00;;;;;;;26.02;49.41;99976.06;20688043;28;19929;-76
2022/09/09 13:55:59;;;;;;;1.85;1.20;;;;;;;26.01;49.65;99960.28;20683016;28;20034;-75
2022/09/09 14:06:01;;;;;;;2.22;1.08;;;;;;;25.97;50.38;99951.00;20668727;28;20047;-76
2022/09/09 14:16:01;;;;;;;1.35;1.00;;;;;;;25.95;50.23;99942.38;20694976;28;20128;-76
2022/09/09 14:26:02;;;;;;;2.40;1.10;;;;;;;25.91;50.01;99930.44;20674498;28;20047;-75
2022/09/09 14:36:03;;;;;;;17.35;1.25;;;;;;;25.92;50.48;99943.53;20681868;28;20049;-77
2022/09/09 14:46:06;;;;;;;5.32;1.20;;;;;;;25.96;50.15;99930.78;20665542;28;20046;-77
2022/09/09 14:56:12;;;;;;;5.57;1.10;;;;;;;25.99;48.09;99931.28;20694839;28;20053;-77
2022/09/09 15:06:14;;;;;;;2.63;0.82;;;;;;;26.06;48.54;99936.75;20689128;28;20168;-77
2022/09/09 15:16:18;;;;;;;2.13;0.90;;;;;;;26.09;48.66;99946.28;20684776;28;20113;-76
2022/09/09 15:26:18;;;;;;;1.30;0.90;;;;;;;26.11;46.92;99929.19;20688268;28;20042;-75
2022/09/09 15:36:24;;;;;;;1.27;0.90;;;;;;;26.17;46.32;99933.00;20688886;28;20277;-75
2022/09/09 15:46:40;;;;;;;1.55;0.82;;;;;;;26.20;45.49;99928.19;20679566;28;20119;-74
2022/09/09 15:56:41;;;;;;;1.13;0.80;;;;;;;26.21;45.05;99937.00;20685398;28;20050;-74
2022/09/09 16:06:42;;;;;;;1.95;0.80;;;;;;;26.22;44.40;99930.72;20674845;28;20074;-75
2022/09/09 16:16:42;;;;;;;0.70;0.70;;;;;;;26.21;44.43;99950.28;20685061;28;20057;-76
2022/09/09 16:26:44;;;;;;;0.77;0.60;;;;;;;26.20;44.19;99941.47;20679196;28;20054;-75
2022/09/09 16:36:47;;;;;;;0.80;0.77;;;;;;;26.26;44.05;99941.84;20689092;28;20121;-75
2022/09/09 16:46:51;;;;;;;4.00;0.70;;;;;;;26.25;43.51;99935.69;20692205;28;20133;-75
2022/09/09 16:56:52;;;;;;;2.08;0.88;;;;;;;26.20;44.25;99941.47;20667037;28;20030;-78
2022/09/09 17:06:54;;;;;;;3.80;1.03;;;;;;;26.11;45.79;99950.41;20694218;28;20056;-76
2022/09/09 17:16:54;;;;;;;2.45;0.80;;;;;;;26.08;46.22;99956.03;20700276;28;20310;-76
2022/09/09 17:26:55;;;;;;;2.97;1.00;;;;;;;26.02;46.06;99960.16;20674719;28;20401;-76
2022/09/09 17:36:55;;;;;;;3.90;0.90;;;;;;;25.98;46.11;99963.28;20681242;28;20056;-75
2022/09/09 17:46:55;;;;;;;3.90;1.20;;;;;;;25.91;46.47;99954.31;20706512;28;20041;-76
2022/09/09 17:56:58;;;;;;;1.50;1.02;;;;;;;25.88;46.42;99974.84;20698965;28;20108;-75
2022/09/09 18:06:58;;;;;;;5.82;1.55;;;;;;;25.88;46.76;99977.50;20663829;28;20038;-80
2022/09/09 18:17:00;;;;;;;6.82;1.98;;;;;;;25.85;46.87;99953.97;20678754;28;21421;-78
2022/09/09 18:27:01;;;;;;;6.72;1.73;;;;;;;25.81;47.03;99981.78;20702373;28;20057;-78
2022/09/09 18:37:02;;;;;;;6.22;1.73;;;;;;;25.78;47.62;99971.50;20700696;28;20133;-78
2022/09/09 18:47:03;;;;;;;5.57;2.10;;;;;;;25.74;47.37;99983.41;20692511;28;20447;-76
2022/09/09 18:57:04;;;;;;;5.70;2.17;;;;;;;25.77;47.80;99975.13;20721429;28;20057;-79
2022/09/09 19:07:05;;;;;;;7.03;1.95;;;;;;;25.75;47.97;99989.56;20692378;28;20145;-77
2022/09/09 19:17:06;;;;;;;5.85;2.28;;;;;;;25.72;47.96;99994.19;20675844;28;20046;-81
2022/09/09 19:27:06;;;;;;;;;;;;;;;25.54;47.39;99986.28;20684198;28;20038;-80
2022/09/09 19:37:07;;;;;;;3.90;2.75;;;;;;;25.42;47.01;99998.97;20709860;28;20400;-80
2022/09/09 19:47:07;;;;;;;4.63;3.55;;;;;;;25.35;48.37;99986.47;20717043;28;20453;-79
2022/09/09 19:57:08;;;;;;;6.07;3.35;;;;;;;25.30;49.31;99994.06;20652853;28;20075;-79
2022/09/09 20:07:09;;;;;;;5.88;3.30;;;;;;;25.27;49.96;99984.63;20689023;28;20177;-79
2022/09/09 20:17:09;;;;;;;3.53;3.15;;;;;;;25.22;50.82;99998.31;20693440;28;20440;-80
2022/09/09 20:27:10;;;;;;;3.72;3.42;;;;;;;25.18;51.24;99996.13;20674732;28;20056;-79
2022/09/09 20:37:10;;;;;;;6.40;3.70;;;;;;;25.08;52.18;100015.63;20696189;28;21141;-79
2022/09/09 20:47:11;;;;;;;4.77;3.73;;;;;;;25.05;52.85;100007.97;20697992;28;20128;-80
2022/09/09 20:57:15;;;;;;;5.23;3.80;;;;;;;24.99;53.73;99995.34;20684736;28;20037;-80
2022/09/09 21:07:15;;;;;;;4.90;3.90;;;;;;;24.94;54.88;99987.84;20682194;28;20073;-80
2022/09/09 21:17:18;;;;;;;5.80;4.55;;;;;;;24.91;54.59;99976.72;20681755;28;21481;-80
2022/09/09 21:27:19;;;;;;;6.05;4.25;;;;;;;24.84;55.37;99978.31;20675454;28;20053;-79
2022/09/09 21:37:20;;;;;;;5.22;4.50;;;;;;;24.70;56.00;99985.00;20677706;28;20069;-79
2022/09/09 21:47:22;;;;;;;;;;;;;;;24.71;55.87;99990.13;20670078;28;20049;-82
2022/09/09 21:57:22;;;;;;;13.93;4.90;;;;;;;24.69;56.01;99980.69;20685828;28;19944;-80
2022/09/09 22:07:23;;;;;;;8.33;4.97;;;;;;;24.66;57.16;99963.28;20692112;28;20057;-80
2022/09/09 22:17:23;;;;;;;6.15;5.55;;;;;;;24.62;57.09;99970.69;20693981;28;20045;-80
2022/09/09 22:27:24;;;;;;;6.38;4.68;;;;;;;24.55;57.75;99976.75;20698209;28;20160;-80
2022/09/09 22:37:25;;;;;;;8.60;7.70;;;;;;;24.48;57.78;99970.38;20696985;28;20108;-80
2022/09/09 22:47:25;;;;;;;6.67;5.60;;;;;;;24.43;57.81;99971.66;20695744;28;20323;-80
2022/09/09 22:57:26;;;;;;;6.43;5.03;;;;;;;24.40;57.91;99966.66;20690694;28;20045;-80
2022/09/09 23:07:27;;;;;;;6.88;6.07;;;;;;;24.33;57.97;99952.38;20699673;28;20046;-80
2022/09/09 23:17:28;;;;;;;6.88;5.13;;;;;;;24.33;58.16;99952.38;20673630;28;20045;-80
2022/09/09 23:27:30;;;;;;;5.40;4.90;;;;;;;24.28;57.78;99958.13;20681781;28;20042;-80
2022/09/09 23:37:30;;;;;;;;;;;;;;;24.18;58.01;99965.28;20697717;28;20033;-80
2022/09/09 23:47:31;;;;;;;8.40;5.30;;;;;;;24.10;58.12;99967.84;20699885;28;19976;-80
2022/09/09 23:57:31;;;;;;;10.65;6.38;;;;;;;24.08;57.74;99973.28;20692398;28;20484;-80
